createdAt,value
2024-03-08T00:00:07.866Z,34.48
2024-03-08T00:01:14.678Z,34.50
2024-03-08T00:02:21.529Z,34.53
2024-03-08T00:03:28.343Z,34.56
2024-03-08T00:04:35.199Z,34.59
2024-03-08T00:05:42.070Z,34.65
2024-03-08T00:06:48.911Z,34.69
2024-03-08T00:07:55.732Z,34.73
2024-03-08T00:09:02.598Z,34.79
2024-03-08T00:10:09.478Z,34.82
2024-03-08T00:11:16.341Z,34.85
2024-03-08T00:12:23.255Z,34.87
2024-03-08T00:13:30.193Z,34.87
2024-03-08T00:14:37.043Z,34.86
2024-03-08T00:15:43.908Z,34.85
2024-03-08T00:16:50.768Z,34.83
2024-03-08T00:17:57.712Z,34.80
2024-03-08T00:19:04.596Z,34.78
2024-03-08T00:20:11.479Z,34.78
2024-03-08T00:21:18.325Z,34.77
2024-03-08T00:22:25.237Z,34.73
2024-03-08T00:23:32.193Z,34.70
2024-03-08T00:24:39.008Z,34.67
2024-03-08T00:25:45.836Z,34.66
2024-03-08T00:26:52.778Z,34.65
2024-03-08T00:27:59.660Z,34.64
2024-03-08T00:29:06.482Z,34.65
2024-03-08T00:30:13.326Z,34.68
2024-03-08T00:31:20.150Z,34.72
2024-03-08T00:32:27.002Z,34.76
2024-03-08T00:33:33.920Z,34.82
2024-03-08T00:34:40.843Z,34.87
2024-03-08T00:35:47.676Z,34.92
2024-03-08T00:36:54.461Z,34.93
2024-03-08T00:38:01.337Z,34.95
2024-03-08T00:39:08.314Z,34.96
2024-03-08T00:40:15.304Z,34.98
2024-03-08T00:41:22.124Z,34.99
2024-03-08T00:42:28.949Z,34.97
2024-03-08T00:43:35.827Z,34.95
2024-03-08T00:44:42.717Z,34.93
2024-03-08T00:45:49.506Z,34.92
2024-03-08T00:46:56.323Z,34.91
2024-03-08T00:48:03.231Z,34.92
2024-03-08T00:49:10.268Z,34.93
2024-03-08T00:50:17.143Z,34.93
2024-03-08T00:51:23.986Z,34.92
2024-03-08T00:52:30.807Z,34.92
2024-03-08T00:53:37.682Z,34.91
2024-03-08T00:54:45.116Z,34.92
2024-03-08T00:55:52.032Z,34.91
2024-03-08T00:56:58.907Z,34.90
2024-03-08T00:58:05.721Z,34.88
2024-03-08T00:59:12.585Z,34.84
2024-03-08T01:00:19.503Z,34.79
2024-03-08T01:01:26.382Z,34.71
2024-03-08T01:02:33.186Z,34.66
2024-03-08T01:03:40.000Z,34.60
2024-03-08T01:04:46.863Z,34.54
2024-03-08T01:05:53.707Z,34.52
2024-03-08T01:07:00.738Z,34.49
2024-03-08T01:08:07.702Z,34.45
2024-03-08T01:09:14.572Z,34.43
2024-03-08T01:10:21.355Z,34.43
2024-03-08T01:11:28.288Z,34.44
2024-03-08T01:12:35.155Z,34.48
2024-03-08T01:13:41.942Z,34.52
2024-03-08T01:14:48.783Z,34.54
2024-03-08T01:15:55.693Z,34.58
2024-03-08T01:17:02.640Z,34.63
2024-03-08T01:18:09.579Z,34.67
2024-03-08T01:19:16.478Z,34.71
2024-03-08T01:20:23.258Z,34.74
2024-03-08T01:21:30.073Z,34.77
2024-03-08T01:22:36.945Z,34.80
2024-03-08T01:23:43.825Z,34.81
2024-03-08T01:24:50.619Z,34.81
2024-03-08T01:25:57.428Z,34.81
2024-03-08T01:27:04.305Z,34.83
2024-03-08T01:28:11.168Z,34.85
2024-03-08T01:29:18.048Z,34.86
2024-03-08T01:30:24.853Z,34.87
2024-03-08T01:31:31.636Z,34.88
2024-03-08T01:32:38.567Z,34.89
2024-03-08T01:33:45.574Z,34.88
2024-03-08T01:34:52.518Z,34.87
2024-03-08T01:35:59.357Z,34.87
2024-03-08T01:37:06.165Z,34.87
2024-03-08T01:38:12.939Z,34.87
2024-03-08T01:39:19.842Z,34.87
2024-03-08T01:40:26.713Z,34.87
2024-03-08T01:41:33.551Z,34.87
2024-03-08T01:42:40.397Z,34.86
2024-03-08T01:43:47.171Z,34.86
2024-03-08T01:44:54.011Z,34.91
2024-03-08T01:46:00.843Z,34.94
2024-03-08T01:47:07.658Z,34.91
2024-03-08T01:48:14.570Z,34.91
2024-03-08T01:49:21.411Z,34.88
2024-03-08T01:50:28.346Z,34.86
2024-03-08T01:51:35.155Z,34.85
2024-03-08T01:52:41.955Z,34.85
2024-03-08T01:53:48.844Z,34.82
2024-03-08T01:54:55.756Z,34.81
2024-03-08T01:56:02.619Z,34.77
2024-03-08T01:57:09.497Z,34.71
2024-03-08T01:58:16.329Z,34.68
2024-03-08T01:59:23.117Z,34.64
2024-03-08T02:00:29.903Z,34.61
2024-03-08T02:01:36.769Z,34.57
2024-03-08T02:02:43.619Z,34.53
2024-03-08T02:03:50.419Z,34.48
2024-03-08T02:04:57.214Z,34.44
2024-03-08T02:06:04.086Z,34.43
2024-03-08T02:07:11.472Z,34.43
2024-03-08T02:08:18.410Z,34.45
2024-03-08T02:09:25.263Z,34.46
2024-03-08T02:10:32.061Z,34.46
2024-03-08T02:11:39.007Z,34.46
2024-03-08T02:12:45.948Z,34.48
2024-03-08T02:13:52.797Z,34.51
2024-03-08T02:14:59.719Z,34.52
2024-03-08T02:16:06.520Z,34.52
2024-03-08T02:17:13.379Z,34.53
2024-03-08T02:18:20.366Z,34.56
2024-03-08T02:19:27.153Z,34.60
2024-03-08T02:20:33.974Z,34.64
2024-03-08T02:21:40.813Z,34.68
2024-03-08T02:22:47.636Z,34.71
2024-03-08T02:23:54.541Z,34.74
2024-03-08T02:25:01.377Z,34.77
2024-03-08T02:26:08.132Z,34.79
2024-03-08T02:27:15.027Z,34.82
2024-03-08T02:28:21.882Z,34.86
2024-03-08T02:29:28.774Z,34.89
2024-03-08T02:30:35.560Z,34.88
2024-03-08T02:31:42.376Z,34.87
2024-03-08T02:32:49.237Z,34.85
2024-03-08T02:33:56.103Z,34.84
2024-03-08T02:35:02.994Z,34.82
2024-03-08T02:36:09.914Z,34.82
2024-03-08T02:37:16.704Z,34.82
2024-03-08T02:38:23.605Z,34.81
2024-03-08T02:39:30.469Z,34.79
2024-03-08T02:40:37.339Z,34.78
2024-03-08T02:41:44.213Z,34.76
2024-03-08T02:42:50.982Z,34.74
2024-03-08T02:43:57.821Z,34.71
2024-03-08T02:45:04.662Z,34.69
2024-03-08T02:46:11.475Z,34.67
2024-03-08T02:47:18.319Z,34.65
2024-03-08T02:48:25.214Z,34.63
2024-03-08T02:49:32.048Z,34.64
2024-03-08T02:50:38.857Z,34.65
2024-03-08T02:51:45.716Z,34.65
2024-03-08T02:52:52.561Z,34.66
2024-03-08T02:53:59.371Z,34.67
2024-03-08T02:55:06.178Z,34.70
2024-03-08T02:56:13.079Z,34.72
2024-03-08T02:57:19.995Z,34.77
2024-03-08T02:58:26.740Z,34.81
2024-03-08T02:59:33.577Z,34.83
2024-03-08T03:00:40.867Z,34.83
2024-03-08T03:01:47.761Z,34.82
2024-03-08T03:02:54.738Z,34.83
2024-03-08T03:04:01.641Z,34.84
2024-03-08T03:05:08.406Z,34.86
2024-03-08T03:06:15.188Z,34.86
2024-03-08T03:07:22.000Z,34.84
2024-03-08T03:08:28.887Z,34.83
2024-03-08T03:09:35.736Z,34.82
2024-03-08T03:10:42.643Z,34.81
2024-03-08T03:11:49.514Z,34.76
2024-03-08T03:12:56.335Z,34.68
2024-03-08T03:14:03.193Z,34.62
2024-03-08T03:15:10.102Z,34.54
2024-03-08T03:16:17.034Z,34.51
2024-03-08T03:17:23.827Z,34.49
2024-03-08T03:18:30.684Z,34.46
2024-03-08T03:19:37.529Z,34.43
2024-03-08T03:20:44.875Z,34.42
2024-03-08T03:21:51.806Z,34.44
2024-03-08T03:22:58.633Z,34.46
2024-03-08T03:24:05.638Z,34.50
2024-03-08T03:25:12.715Z,34.54
2024-03-08T03:26:19.576Z,34.56
2024-03-08T03:27:26.349Z,34.61
2024-03-08T03:28:33.136Z,34.66
2024-03-08T03:29:39.947Z,34.69
2024-03-08T03:30:46.765Z,34.72
2024-03-08T03:31:53.578Z,34.74
2024-03-08T03:33:00.452Z,34.76
2024-03-08T03:34:07.292Z,34.78
2024-03-08T03:35:14.096Z,34.80
2024-03-08T03:36:21.004Z,34.81
2024-03-08T03:37:27.887Z,34.82
2024-03-08T03:38:34.750Z,34.84
2024-03-08T03:39:41.517Z,34.85
2024-03-08T03:40:48.317Z,34.86
2024-03-08T03:41:55.169Z,34.87
2024-03-08T03:43:02.005Z,34.87
2024-03-08T03:44:08.817Z,34.87
2024-03-08T03:45:15.599Z,34.87
2024-03-08T03:46:22.425Z,34.87
2024-03-08T03:47:29.424Z,34.87
2024-03-08T03:48:36.320Z,34.86
2024-03-08T03:49:43.206Z,34.85
2024-03-08T03:50:50.168Z,34.84
2024-03-08T03:51:56.958Z,34.84
2024-03-08T03:53:03.786Z,34.84
2024-03-08T03:54:10.590Z,34.85
2024-03-08T03:55:17.481Z,34.84
2024-03-08T03:56:24.269Z,34.85
2024-03-08T03:57:31.055Z,34.89
2024-03-08T03:58:37.889Z,34.89
2024-03-08T03:59:44.667Z,34.89
2024-03-08T04:00:51.479Z,34.88
2024-03-08T04:01:58.301Z,34.85
2024-03-08T04:03:05.226Z,34.83
2024-03-08T04:04:12.041Z,34.80
2024-03-08T04:05:18.886Z,34.78
2024-03-08T04:06:25.689Z,34.77
2024-03-08T04:07:32.470Z,34.76
2024-03-08T04:08:39.281Z,34.73
2024-03-08T04:09:46.094Z,34.70
2024-03-08T04:10:52.834Z,34.66
2024-03-08T04:11:59.686Z,34.64
2024-03-08T04:13:06.503Z,34.60
2024-03-08T04:14:13.311Z,34.56
2024-03-08T04:15:20.154Z,34.54
2024-03-08T04:16:26.932Z,34.52
2024-03-08T04:17:33.815Z,34.51
2024-03-08T04:18:40.686Z,34.49
2024-03-08T04:19:47.519Z,34.46
2024-03-08T04:20:54.344Z,34.44
2024-03-08T04:22:01.122Z,34.43
2024-03-08T04:23:07.983Z,34.44
2024-03-08T04:24:14.821Z,34.47
2024-03-08T04:25:21.659Z,34.51
2024-03-08T04:26:28.556Z,34.54
2024-03-08T04:27:35.775Z,34.58
2024-03-08T04:28:42.740Z,34.61
2024-03-08T04:29:49.535Z,34.63
2024-03-08T04:30:56.307Z,34.66
2024-03-08T04:32:03.162Z,34.69
2024-03-08T04:33:10.077Z,34.73
2024-03-08T04:34:16.957Z,34.76
2024-03-08T04:35:23.828Z,34.78
2024-03-08T04:36:30.620Z,34.79
2024-03-08T04:37:37.526Z,34.81
2024-03-08T04:38:44.476Z,34.81
2024-03-08T04:39:51.384Z,34.82
2024-03-08T04:40:58.195Z,34.82
2024-03-08T04:42:06.576Z,34.80
2024-03-08T04:43:13.659Z,34.75
2024-03-08T04:44:20.462Z,34.69
2024-03-08T04:45:27.244Z,34.67
2024-03-08T04:46:34.051Z,34.68
2024-03-08T04:47:40.967Z,34.70
2024-03-08T04:48:48.075Z,34.71
2024-03-08T04:49:54.963Z,34.68
2024-03-08T04:51:01.839Z,34.62
2024-03-08T04:52:08.625Z,34.55
2024-03-08T04:53:15.443Z,34.42
2024-03-08T04:54:22.274Z,34.30
2024-03-08T04:55:29.071Z,34.20
2024-03-08T04:56:35.901Z,34.12
2024-03-08T04:57:42.730Z,34.07
2024-03-08T04:58:49.493Z,34.03
2024-03-08T04:59:56.379Z,33.98
2024-03-08T05:01:03.164Z,33.91
2024-03-08T05:02:09.979Z,33.84
2024-03-08T05:03:16.874Z,33.77
2024-03-08T05:04:23.800Z,33.74
2024-03-08T05:05:30.637Z,33.71
2024-03-08T05:06:37.545Z,33.68
2024-03-08T05:07:44.559Z,33.66
2024-03-08T05:08:51.397Z,33.64
2024-03-08T05:09:58.241Z,33.62
2024-03-08T05:11:05.062Z,33.62
2024-03-08T05:12:11.961Z,33.61
2024-03-08T05:13:18.756Z,33.61
2024-03-08T05:14:25.597Z,33.61
2024-03-08T05:15:32.449Z,33.61
2024-03-08T05:16:39.280Z,33.61
2024-03-08T05:17:46.207Z,33.61
2024-03-08T05:18:53.160Z,33.60
2024-03-08T05:20:00.004Z,33.59
2024-03-08T05:21:06.922Z,33.60
2024-03-08T05:22:13.854Z,33.60
2024-03-08T05:23:20.718Z,33.64
2024-03-08T05:24:27.461Z,33.65
2024-03-08T05:25:34.362Z,33.65
2024-03-08T05:26:41.199Z,33.69
2024-03-08T05:27:48.055Z,33.73
2024-03-08T05:28:54.868Z,33.79
2024-03-08T05:30:01.839Z,33.88
2024-03-08T05:31:08.653Z,33.72
2024-03-08T05:32:15.502Z,33.09
2024-03-08T05:33:22.411Z,32.52
2024-03-08T05:34:29.217Z,32.13
2024-03-08T05:35:36.098Z,31.76
2024-03-08T05:36:42.896Z,31.48
2024-03-08T05:37:49.677Z,31.26
2024-03-08T05:38:56.442Z,31.12
2024-03-08T05:40:03.270Z,30.97
2024-03-08T05:41:10.074Z,30.79
2024-03-08T05:42:17.082Z,30.64
2024-03-08T05:43:23.924Z,30.52
2024-03-08T05:44:30.741Z,30.40
2024-03-08T05:45:37.515Z,30.33
2024-03-08T05:46:44.380Z,30.27
2024-03-08T05:47:51.328Z,30.24
2024-03-08T05:48:58.375Z,30.21
2024-03-08T05:50:05.274Z,30.15
2024-03-08T05:51:12.173Z,30.11
2024-03-08T05:52:19.006Z,30.11
2024-03-08T05:53:25.823Z,30.13
2024-03-08T05:54:32.646Z,30.14
2024-03-08T05:55:39.453Z,30.11
2024-03-08T05:56:46.560Z,30.07
2024-03-08T05:57:53.428Z,30.04
2024-03-08T05:59:00.252Z,30.01
2024-03-08T06:00:07.168Z,29.98
2024-03-08T06:01:14.103Z,29.95
2024-03-08T06:02:20.897Z,29.97
2024-03-08T06:03:27.686Z,29.88
2024-03-08T06:04:34.566Z,29.76
2024-03-08T06:05:41.399Z,29.64
2024-03-08T06:06:51.398Z,29.58
2024-03-08T06:07:59.650Z,29.55
2024-03-08T06:09:06.556Z,29.52
2024-03-08T06:10:13.440Z,29.54
2024-03-08T06:11:20.269Z,29.61
2024-03-08T06:12:27.158Z,29.63
2024-03-08T06:13:33.962Z,29.63
2024-03-08T06:14:40.826Z,29.65
2024-03-08T06:15:47.658Z,29.67
2024-03-08T06:16:54.469Z,29.66
2024-03-08T06:18:01.454Z,29.64
2024-03-08T06:19:08.424Z,29.66
2024-03-08T06:20:15.411Z,29.64
2024-03-08T06:21:22.608Z,29.55
2024-03-08T06:22:29.454Z,29.34
2024-03-08T06:23:36.267Z,29.16
2024-03-08T06:24:43.036Z,29.11
2024-03-08T06:25:49.862Z,29.09
2024-03-08T06:26:56.698Z,29.09
2024-03-08T06:28:03.588Z,29.27
2024-03-08T06:29:10.352Z,29.50
2024-03-08T06:30:17.582Z,29.74
2024-03-08T06:31:24.453Z,30.01
2024-03-08T06:32:31.456Z,30.29
2024-03-08T06:33:38.320Z,30.67
2024-03-08T06:34:45.113Z,31.07
2024-03-08T06:35:52.016Z,31.33
2024-03-08T06:36:58.847Z,31.59
2024-03-08T06:38:05.672Z,31.87
2024-03-08T06:39:12.544Z,32.15
2024-03-08T06:40:19.393Z,32.40
2024-03-08T06:41:26.205Z,32.61
2024-03-08T06:42:32.988Z,32.76
2024-03-08T06:43:39.832Z,32.85
2024-03-08T06:44:46.665Z,32.90
2024-03-08T06:45:53.491Z,32.95
2024-03-08T06:47:01.130Z,33.01
2024-03-08T06:48:08.181Z,33.06
2024-03-08T06:49:14.999Z,33.10
2024-03-08T06:50:21.782Z,33.13
2024-03-08T06:51:28.602Z,33.16
2024-03-08T06:52:35.385Z,33.18
2024-03-08T06:53:42.212Z,33.21
2024-03-08T06:54:49.084Z,33.26
2024-03-08T06:55:55.895Z,33.34
2024-03-08T06:57:02.701Z,33.48
2024-03-08T06:58:09.596Z,33.63
2024-03-08T06:59:16.396Z,33.74
2024-03-08T07:00:23.337Z,33.85
2024-03-08T07:01:30.117Z,33.92
2024-03-08T07:02:36.941Z,33.94
2024-03-08T07:03:43.685Z,33.95
2024-03-08T07:04:50.464Z,33.93
2024-03-08T07:05:57.321Z,33.89
2024-03-08T07:07:04.097Z,33.90
2024-03-08T07:08:10.944Z,33.90
2024-03-08T07:09:17.883Z,33.90
2024-03-08T07:10:24.799Z,33.93
2024-03-08T07:11:31.657Z,33.95
2024-03-08T07:12:38.489Z,33.99
2024-03-08T07:13:45.307Z,34.02
2024-03-08T07:14:52.155Z,34.08
2024-03-08T07:15:58.956Z,34.10
2024-03-08T07:17:07.496Z,34.12
2024-03-08T07:18:14.497Z,34.14
2024-03-08T07:19:21.288Z,34.16
2024-03-08T07:20:28.111Z,34.18
2024-03-08T07:21:34.944Z,34.20
2024-03-08T07:22:41.779Z,34.23
2024-03-08T07:23:48.581Z,34.25
2024-03-08T07:24:55.393Z,34.26
2024-03-08T07:26:02.215Z,34.28
2024-03-08T07:27:09.074Z,34.29
2024-03-08T07:28:15.918Z,34.30
2024-03-08T07:29:22.706Z,34.31
2024-03-08T07:30:30.214Z,34.31
2024-03-08T07:31:37.127Z,34.31
2024-03-08T07:32:43.988Z,34.32
2024-03-08T07:33:51.008Z,34.34
2024-03-08T07:34:57.955Z,34.35
2024-03-08T07:36:04.813Z,34.36
2024-03-08T07:37:11.595Z,34.38
2024-03-08T07:38:18.429Z,34.40
2024-03-08T07:39:25.228Z,34.40
2024-03-08T07:40:32.011Z,34.40
2024-03-08T07:41:38.818Z,34.41
2024-03-08T07:42:45.631Z,34.43
2024-03-08T07:43:52.438Z,34.43
2024-03-08T07:44:59.293Z,34.42
2024-03-08T07:46:06.528Z,34.40
2024-03-08T07:47:13.301Z,34.40
2024-03-08T07:48:20.113Z,34.42
2024-03-08T07:49:26.923Z,34.44
2024-03-08T07:50:33.873Z,34.46
2024-03-08T07:51:40.791Z,34.47
2024-03-08T07:52:47.579Z,34.44
2024-03-08T07:53:54.350Z,34.41
2024-03-08T07:55:01.147Z,34.39
2024-03-08T07:56:07.940Z,34.37
2024-03-08T07:57:14.719Z,34.33
2024-03-08T07:58:21.570Z,34.31
2024-03-08T07:59:28.430Z,34.31
2024-03-08T08:00:35.201Z,34.32
2024-03-08T08:01:42.163Z,34.32
2024-03-08T08:02:49.018Z,34.34
2024-03-08T08:03:55.822Z,34.36
2024-03-08T08:05:02.594Z,34.38
2024-03-08T08:06:09.418Z,34.41
2024-03-08T08:07:16.275Z,34.43
2024-03-08T08:08:23.064Z,34.45
2024-03-08T08:09:30.087Z,34.45
2024-03-08T08:10:37.046Z,34.45
2024-03-08T08:11:43.873Z,34.46
2024-03-08T08:12:50.614Z,34.47
2024-03-08T08:13:57.405Z,34.48
2024-03-08T08:15:04.171Z,34.49
2024-03-08T08:16:10.992Z,34.51
2024-03-08T08:17:18.014Z,34.52
2024-03-08T08:18:24.817Z,34.53
2024-03-08T08:19:31.630Z,34.53
2024-03-08T08:20:38.431Z,34.53
2024-03-08T08:21:45.235Z,34.54
2024-03-08T08:22:52.041Z,34.55
2024-03-08T08:23:58.916Z,34.57
2024-03-08T08:25:05.705Z,34.58
2024-03-08T08:26:12.588Z,34.57
2024-03-08T08:27:19.388Z,34.56
2024-03-08T08:28:26.151Z,34.60
2024-03-08T08:29:32.938Z,34.64
2024-03-08T08:30:39.759Z,34.61
2024-03-08T08:31:46.632Z,34.58
2024-03-08T08:32:53.449Z,34.56
2024-03-08T08:34:00.228Z,34.54
2024-03-08T08:35:07.183Z,34.53
2024-03-08T08:36:13.977Z,34.53
2024-03-08T08:37:22.036Z,34.53
2024-03-08T08:38:29.745Z,34.54
2024-03-08T08:39:36.539Z,34.54
2024-03-08T08:40:43.386Z,34.53
2024-03-08T08:41:50.184Z,34.52
2024-03-08T08:42:57.007Z,34.50
2024-03-08T08:44:14.663Z,34.49
2024-03-08T08:45:17.373Z,34.47
2024-03-08T08:46:25.217Z,34.44
2024-03-08T08:47:32.102Z,34.43
2024-03-08T08:48:38.878Z,34.43
2024-03-08T08:49:45.714Z,34.43
2024-03-08T08:50:52.561Z,34.42
2024-03-08T08:52:06.360Z,34.40
2024-03-08T08:53:11.141Z,34.40
2024-03-08T08:54:17.936Z,34.41
2024-03-08T08:55:24.793Z,34.43
2024-03-08T08:56:31.627Z,34.45
2024-03-08T08:57:38.434Z,34.46
2024-03-08T08:58:45.238Z,34.48
2024-03-08T08:59:52.040Z,34.50
2024-03-08T09:00:58.897Z,34.51
2024-03-08T09:02:05.883Z,34.54
2024-03-08T09:03:12.812Z,34.54
2024-03-08T09:04:19.602Z,34.53
2024-03-08T09:05:26.392Z,34.53
2024-03-08T09:06:33.201Z,34.53
2024-03-08T09:07:40.084Z,34.52
2024-03-08T09:08:46.937Z,34.52
2024-03-08T09:09:53.793Z,34.52
2024-03-08T09:11:00.629Z,34.53
2024-03-08T09:12:07.547Z,34.54
2024-03-08T09:13:18.685Z,34.56
2024-03-08T09:14:26.055Z,34.57
2024-03-08T09:15:32.949Z,34.58
2024-03-08T09:16:39.818Z,34.59
2024-03-08T09:17:46.719Z,34.60
2024-03-08T09:18:53.456Z,34.60
2024-03-08T09:20:00.337Z,34.58
2024-03-08T09:21:07.123Z,34.57
2024-03-08T09:22:13.934Z,34.56
2024-03-08T09:23:20.770Z,34.57
2024-03-08T09:24:27.557Z,34.55
2024-03-08T09:25:34.397Z,34.53
2024-03-08T09:26:41.263Z,34.53
2024-03-08T09:27:48.091Z,34.53
2024-03-08T09:28:54.984Z,34.54
2024-03-08T09:30:01.797Z,34.55
2024-03-08T09:31:08.596Z,34.56
2024-03-08T09:32:15.360Z,34.56
2024-03-08T09:33:22.223Z,34.56
2024-03-08T09:34:36.490Z,34.56
2024-03-08T09:35:40.677Z,34.55
2024-03-08T09:36:47.502Z,34.56
2024-03-08T09:37:54.343Z,34.56
2024-03-08T09:39:01.119Z,34.58
2024-03-08T09:40:07.946Z,34.59
2024-03-08T09:41:14.730Z,34.59
2024-03-08T09:42:21.522Z,34.60
2024-03-08T09:43:28.379Z,34.59
2024-03-08T09:44:35.152Z,34.55
2024-03-08T09:45:41.994Z,34.52
2024-03-08T09:46:48.789Z,34.53
2024-03-08T09:47:55.744Z,34.52
2024-03-08T09:49:02.522Z,34.48
2024-03-08T09:50:09.321Z,34.45
2024-03-08T09:51:16.500Z,34.42
2024-03-08T09:52:23.326Z,34.37
2024-03-08T09:53:30.170Z,34.35
2024-03-08T09:54:37.024Z,34.37
2024-03-08T09:55:43.971Z,34.42
2024-03-08T09:56:50.813Z,34.46
2024-03-08T09:57:57.630Z,34.49
2024-03-08T09:59:04.527Z,34.51
2024-03-08T10:00:11.338Z,34.53
2024-03-08T10:01:18.177Z,34.57
2024-03-08T10:02:25.178Z,34.61
2024-03-08T10:03:32.064Z,34.65
2024-03-08T10:04:38.954Z,34.69
2024-03-08T10:05:45.841Z,34.72
2024-03-08T10:06:52.659Z,34.76
2024-03-08T10:07:59.478Z,34.77
2024-03-08T10:09:06.254Z,34.78
2024-03-08T10:10:13.261Z,34.78
2024-03-08T10:11:20.241Z,34.75
2024-03-08T10:12:27.028Z,34.70
2024-03-08T10:13:33.860Z,34.66
2024-03-08T10:14:40.670Z,34.62
2024-03-08T10:15:47.627Z,34.60
2024-03-08T10:16:54.507Z,34.59
2024-03-08T10:18:01.322Z,34.59
2024-03-08T10:19:08.110Z,34.58
2024-03-08T10:20:14.882Z,34.56
2024-03-08T10:21:21.711Z,34.54
2024-03-08T10:22:28.512Z,34.52
2024-03-08T10:23:35.374Z,34.48
2024-03-08T10:24:42.228Z,34.46
2024-03-08T10:25:49.109Z,34.45
2024-03-08T10:26:55.968Z,34.43
2024-03-08T10:28:02.803Z,34.44
2024-03-08T10:29:09.589Z,34.45
2024-03-08T10:30:16.404Z,34.48
2024-03-08T10:31:23.238Z,34.52
2024-03-08T10:32:30.071Z,34.54
2024-03-08T10:33:36.859Z,34.58
2024-03-08T10:34:43.734Z,34.62
2024-03-08T10:35:50.545Z,34.61
2024-03-08T10:36:57.329Z,34.59
2024-03-08T10:38:04.174Z,34.56
2024-03-08T10:39:10.996Z,34.54
2024-03-08T10:40:17.863Z,34.54
2024-03-08T10:41:24.636Z,34.53
2024-03-08T10:42:31.445Z,34.53
2024-03-08T10:43:38.381Z,34.53
2024-03-08T10:44:45.225Z,34.52
2024-03-08T10:45:52.057Z,34.50
2024-03-08T10:46:58.906Z,34.47
2024-03-08T10:48:05.779Z,34.46
2024-03-08T10:49:12.694Z,34.45
2024-03-08T10:50:19.546Z,34.45
2024-03-08T10:51:26.329Z,34.46
2024-03-08T10:52:33.305Z,34.46
2024-03-08T10:53:40.176Z,34.45
2024-03-08T10:54:46.981Z,34.45
2024-03-08T10:55:53.805Z,34.46
2024-03-08T10:57:00.645Z,34.48
2024-03-08T10:58:07.405Z,34.50
2024-03-08T10:59:14.216Z,34.49
2024-03-08T11:00:21.049Z,34.49
2024-03-08T11:01:28.110Z,34.48
2024-03-08T11:02:34.865Z,34.46
2024-03-08T11:03:41.692Z,34.44
2024-03-08T11:04:48.505Z,34.44
2024-03-08T11:05:55.320Z,34.41
2024-03-08T11:07:02.133Z,34.38
2024-03-08T11:08:08.957Z,34.39
2024-03-08T11:09:15.726Z,34.40
2024-03-08T11:10:22.521Z,34.40
2024-03-08T11:11:33.385Z,34.38
2024-03-08T11:12:41.063Z,34.42
2024-03-08T11:13:48.264Z,34.45
2024-03-08T11:14:55.092Z,34.45
2024-03-08T11:16:01.966Z,34.46
2024-03-08T11:17:08.809Z,34.46
2024-03-08T11:18:15.673Z,34.43
2024-03-08T11:19:22.481Z,34.37
2024-03-08T11:20:29.272Z,34.32
2024-03-08T11:21:36.046Z,34.29
2024-03-08T11:22:43.007Z,34.27
2024-03-08T11:23:49.892Z,34.27
2024-03-08T11:24:56.740Z,34.28
2024-03-08T11:26:03.525Z,34.31
2024-03-08T11:27:10.280Z,34.34
2024-03-08T11:28:17.139Z,34.38
2024-03-08T11:29:23.908Z,34.43
2024-03-08T11:30:30.690Z,34.48
2024-03-08T11:31:37.599Z,34.51
2024-03-08T11:32:44.411Z,34.54
2024-03-08T11:33:51.216Z,34.56
2024-03-08T11:34:58.054Z,34.58
2024-03-08T11:36:06.880Z,34.59
2024-03-08T11:37:14.979Z,34.60
2024-03-08T11:38:21.760Z,34.60
2024-03-08T11:39:28.589Z,34.62
2024-03-08T11:40:35.547Z,34.63
2024-03-08T11:41:42.455Z,34.64
2024-03-08T11:42:49.554Z,34.64
2024-03-08T11:43:56.743Z,34.65
2024-03-08T11:45:03.640Z,34.64
2024-03-08T11:46:10.472Z,34.64
2024-03-08T11:47:17.425Z,34.62
2024-03-08T11:48:24.472Z,34.60
2024-03-08T11:49:31.314Z,34.60
2024-03-08T11:50:38.100Z,34.60
2024-03-08T11:51:44.932Z,34.60
2024-03-08T11:52:51.750Z,34.62
2024-03-08T11:53:58.620Z,34.64
2024-03-08T11:55:05.440Z,34.64
2024-03-08T11:56:12.337Z,34.64
2024-03-08T11:57:19.232Z,34.61
2024-03-08T11:58:26.085Z,34.55
2024-03-08T11:59:32.870Z,34.48
2024-03-08T12:00:39.681Z,34.36
2024-03-08T12:01:46.541Z,34.23
2024-03-08T12:02:53.449Z,34.13
2024-03-08T12:04:00.449Z,34.07
2024-03-08T12:05:07.432Z,34.02
2024-03-08T12:06:14.208Z,33.96
2024-03-08T12:07:21.100Z,33.94
2024-03-08T12:08:27.944Z,33.93
2024-03-08T12:09:34.721Z,33.95
2024-03-08T12:10:41.578Z,33.99
2024-03-08T12:11:48.500Z,34.05
2024-03-08T12:12:55.401Z,34.10
2024-03-08T12:14:02.218Z,34.10
2024-03-08T12:15:08.996Z,34.08
2024-03-08T12:16:15.838Z,34.07
2024-03-08T12:17:22.643Z,34.11
2024-03-08T12:18:29.438Z,34.16
2024-03-08T12:19:36.281Z,34.19
2024-03-08T12:20:43.097Z,34.23
2024-03-08T12:21:50.021Z,34.26
2024-03-08T12:22:56.917Z,34.29
2024-03-08T12:24:03.790Z,34.30
2024-03-08T12:25:10.658Z,34.31
2024-03-08T12:26:17.455Z,34.33
2024-03-08T12:27:24.219Z,34.35
2024-03-08T12:28:31.028Z,34.37
2024-03-08T12:29:37.902Z,34.38
2024-03-08T12:30:44.694Z,34.39
2024-03-08T12:31:51.578Z,34.39
2024-03-08T12:32:58.559Z,34.40
2024-03-08T12:34:05.516Z,34.40
2024-03-08T12:35:12.401Z,34.40
2024-03-08T12:36:19.227Z,34.42
2024-03-08T12:37:26.036Z,34.43
2024-03-08T12:38:33.107Z,34.44
2024-03-08T12:39:39.987Z,34.45
2024-03-08T12:40:46.891Z,34.46
2024-03-08T12:41:53.707Z,34.47
2024-03-08T12:43:00.525Z,34.46
2024-03-08T12:44:07.346Z,34.46
2024-03-08T12:45:14.112Z,34.47
2024-03-08T12:46:20.913Z,34.46
2024-03-08T12:47:27.762Z,34.47
2024-03-08T12:48:34.561Z,34.46
2024-03-08T12:49:41.436Z,34.45
2024-03-08T12:50:48.200Z,34.44
2024-03-08T12:51:55.039Z,34.43
2024-03-08T12:53:02.434Z,34.44
2024-03-08T12:54:09.953Z,34.47
2024-03-08T12:55:16.776Z,34.49
2024-03-08T12:56:23.569Z,34.50
2024-03-08T12:57:30.340Z,34.51
2024-03-08T12:58:37.233Z,34.52
2024-03-08T12:59:44.049Z,34.43
2024-03-08T13:00:54.049Z,34.18
2024-03-08T13:02:01.420Z,33.95
2024-03-08T13:03:08.362Z,33.87
2024-03-08T13:04:15.315Z,33.80
2024-03-08T13:05:22.202Z,33.75
2024-03-08T13:06:28.998Z,33.72
2024-03-08T13:07:35.828Z,33.70
2024-03-08T13:08:42.685Z,33.66
2024-03-08T13:09:49.511Z,33.62
2024-03-08T13:10:56.521Z,33.58
2024-03-08T13:12:03.571Z,33.55
2024-03-08T13:13:10.398Z,33.53
2024-03-08T13:14:17.249Z,33.51
2024-03-08T13:15:24.022Z,33.49
2024-03-08T13:16:31.029Z,33.48
2024-03-08T13:17:37.848Z,33.48
2024-03-08T13:18:44.701Z,33.47
2024-03-08T13:19:51.611Z,33.47
2024-03-08T13:20:58.441Z,33.47
2024-03-08T13:22:05.241Z,33.45
2024-03-08T13:23:12.040Z,33.45
2024-03-08T13:24:18.838Z,33.44
2024-03-08T13:25:25.683Z,33.43
2024-03-08T13:26:32.570Z,33.43
2024-03-08T13:27:39.435Z,33.42
2024-03-08T13:28:46.312Z,33.42
2024-03-08T13:29:53.145Z,33.41
2024-03-08T13:31:02.209Z,33.40
2024-03-08T13:32:10.978Z,33.40
2024-03-08T13:33:17.787Z,33.39
2024-03-08T13:34:24.631Z,33.41
2024-03-08T13:35:31.649Z,33.47
2024-03-08T13:36:38.605Z,33.49
2024-03-08T13:37:45.510Z,33.50
2024-03-08T13:38:52.293Z,33.49
2024-03-08T13:39:59.182Z,33.47
2024-03-08T13:41:06.254Z,33.46
2024-03-08T13:42:13.182Z,33.46
2024-03-08T13:43:20.040Z,33.46
2024-03-08T13:44:26.839Z,33.42
2024-03-08T13:45:33.602Z,33.37
2024-03-08T13:46:40.422Z,33.35
2024-03-08T13:47:47.284Z,33.35
2024-03-08T13:48:54.093Z,33.35
2024-03-08T13:50:00.961Z,33.34
2024-03-08T13:51:07.811Z,33.33
2024-03-08T13:52:14.639Z,33.33
2024-03-08T13:53:21.462Z,33.32
2024-03-08T13:54:28.378Z,33.31
2024-03-08T13:55:35.283Z,33.31
2024-03-08T13:56:42.061Z,33.30
2024-03-08T13:57:48.893Z,33.28
2024-03-08T13:58:55.729Z,33.28
2024-03-08T14:00:02.480Z,33.29
2024-03-08T14:01:09.295Z,33.28
2024-03-08T14:02:16.191Z,33.28
2024-03-08T14:03:23.020Z,33.28
2024-03-08T14:04:29.918Z,33.28
2024-03-08T14:05:36.832Z,33.27
2024-03-08T14:06:43.587Z,33.28
2024-03-08T14:07:51.128Z,33.27
2024-03-08T14:08:58.283Z,33.27
2024-03-08T14:10:05.161Z,33.27
2024-03-08T14:11:12.063Z,33.29
2024-03-08T14:12:20.155Z,33.34
2024-03-08T14:13:27.474Z,33.35
2024-03-08T14:14:34.293Z,33.33
2024-03-08T14:15:41.153Z,33.36
2024-03-08T14:16:48.104Z,33.43
2024-03-08T14:17:55.003Z,33.43
2024-03-08T14:19:03.483Z,33.43
2024-03-08T14:20:11.003Z,33.44
2024-03-08T14:21:17.884Z,33.44